createdAt,value
2023-05-10T00:02:24.344Z,100852.80
2023-05-10T00:07:27.477Z,100848.98
2023-05-10T00:12:30.272Z,100848.99
2023-05-10T00:17:33.100Z,100846.55
2023-05-10T00:22:37.922Z,100846.04
2023-05-10T00:27:40.640Z,100844.64
2023-05-10T00:32:44.647Z,100846.36
2023-05-10T00:37:47.471Z,100840.98
2023-05-10T00:42:50.731Z,100838.05
2023-05-10T00:47:56.249Z,100837.02
2023-05-10T00:53:00.664Z,100837.02
2023-05-10T00:58:03.463Z,100838.90
2023-05-10T01:03:06.634Z,100846.33
2023-05-10T01:08:09.899Z,100841.30
2023-05-10T01:13:13.935Z,100834.55
2023-05-10T01:18:21.240Z,100833.98
2023-05-10T01:23:44.884Z,100830.49
2023-05-10T01:29:02.751Z,100827.53
2023-05-10T01:34:16.794Z,100830.98
2023-05-10T01:39:29.649Z,100826.48
2023-05-10T01:44:36.819Z,100827.65
2023-05-10T01:49:47.848Z,100825.02
2023-05-10T01:54:57.148Z,100827.58
2023-05-10T02:00:02.262Z,100827.36
2023-05-10T02:05:07.297Z,100827.14
2023-05-10T02:10:12.837Z,100835.09
2023-05-10T02:15:22.344Z,100836.81
2023-05-10T02:20:26.699Z,100831.59
2023-05-10T02:25:31.361Z,100834.16
2023-05-10T02:30:36.227Z,100840.69
2023-05-10T02:35:39.383Z,100837.23
2023-05-10T02:40:43.639Z,100833.27
2023-05-10T02:45:49.096Z,100828.96
2023-05-10T02:50:53.534Z,100825.67
2023-05-10T02:56:01.513Z,100824.60
2023-05-10T03:01:04.640Z,100821.80
2023-05-10T03:06:07.472Z,100821.96
2023-05-10T03:11:34.900Z,100823.36
2023-05-10T03:16:48.306Z,100826.30
2023-05-10T03:21:53.756Z,100821.47
2023-05-10T03:27:00.041Z,100818.89
2023-05-10T03:32:03.283Z,100818.05
2023-05-10T03:37:06.032Z,100811.35
2023-05-10T03:42:08.897Z,100807.61
2023-05-10T03:47:12.117Z,100808.15
2023-05-10T03:52:15.429Z,100808.73
2023-05-10T03:57:18.265Z,100812.08
2023-05-10T04:02:21.109Z,100808.48
2023-05-10T04:07:23.937Z,100810.24
2023-05-10T04:12:26.749Z,100811.20
2023-05-10T04:17:31.753Z,100810.70
2023-05-10T04:22:34.631Z,100809.34
2023-05-10T04:27:38.374Z,100812.29
2023-05-10T04:32:41.283Z,100807.34
2023-05-10T04:37:44.566Z,100798.74
2023-05-10T04:42:47.631Z,100788.64
2023-05-10T04:47:50.426Z,100773.04
2023-05-10T04:52:53.414Z,100762.52
2023-05-10T04:57:58.338Z,100752.63
2023-05-10T05:03:01.240Z,100749.80
2023-05-10T05:08:04.782Z,100756.73
2023-05-10T05:13:07.785Z,100753.03
2023-05-10T05:18:10.688Z,100760.34
2023-05-10T05:23:13.750Z,100766.64
2023-05-10T05:28:17.189Z,100772.60
2023-05-10T05:33:20.485Z,100768.50
2023-05-10T05:38:23.393Z,100772.86
2023-05-10T05:43:26.320Z,100772.33
2023-05-10T05:48:31.204Z,100770.59
2023-05-10T05:53:34.924Z,100771.12
2023-05-10T05:58:38.895Z,100773.10
2023-05-10T06:03:42.612Z,100768.88
2023-05-10T06:08:45.781Z,100768.21
2023-05-10T06:14:01.189Z,100768.81
2023-05-10T06:19:05.125Z,100768.33
2023-05-10T06:24:08.564Z,100766.11
2023-05-10T06:29:12.584Z,100760.17
2023-05-10T06:34:15.478Z,100750.86
2023-05-10T06:39:18.844Z,100738.37
2023-05-10T06:44:22.549Z,100733.95
2023-05-10T06:49:25.402Z,100725.64
2023-05-10T06:54:28.521Z,100723.55
2023-05-10T06:59:31.550Z,100713.22
2023-05-10T07:04:35.402Z,100709.63
2023-05-10T07:09:38.720Z,100705.75
2023-05-10T07:14:43.637Z,100707.36
2023-05-10T07:19:46.464Z,100708.23
2023-05-10T07:24:49.585Z,100705.61
2023-05-10T07:29:54.521Z,100707.91
2023-05-10T07:34:57.468Z,100704.55
2023-05-10T07:40:00.543Z,100709.33
2023-05-10T07:45:03.650Z,100710.55
2023-05-10T07:50:07.418Z,100710.48
2023-05-10T07:55:11.874Z,100711.69
2023-05-10T08:00:19.160Z,100708.07
2023-05-10T08:05:22.349Z,100709.84
2023-05-10T08:10:25.640Z,100707.12
2023-05-10T08:15:28.432Z,100702.12
2023-05-10T08:20:33.396Z,100702.10
2023-05-10T08:25:36.470Z,100706.34
2023-05-10T08:30:46.787Z,100703.39
2023-05-10T08:35:50.061Z,100705.63
2023-05-10T08:40:57.833Z,100707.58
2023-05-10T08:46:06.692Z,100708.64
2023-05-10T08:51:13.917Z,100710.14
2023-05-10T08:56:18.719Z,100709.62
2023-05-10T09:01:22.723Z,100709.15
2023-05-10T09:06:25.832Z,100714.04
2023-05-10T09:11:30.216Z,100716.54
2023-05-10T09:16:33.140Z,100711.02
2023-05-10T09:21:39.361Z,100708.22
2023-05-10T09:26:53.512Z,100709.96
2023-05-10T09:31:57.796Z,100705.73
2023-05-10T09:37:03.878Z,100702.64
2023-05-10T09:42:11.434Z,100706.16
2023-05-10T09:47:19.485Z,100701.79
2023-05-10T09:52:47.553Z,100705.89
2023-05-10T09:57:59.744Z,100704.36
2023-05-10T10:03:09.921Z,100701.05
2023-05-10T10:08:16.469Z,100696.56
2023-05-10T10:13:20.283Z,100685.13
2023-05-10T10:18:28.145Z,100683.60
2023-05-10T10:23:31.583Z,100671.55
2023-05-10T10:29:01.490Z,100667.02
2023-05-10T10:34:11.239Z,100664.27
2023-05-10T10:39:25.096Z,100664.89
2023-05-10T10:44:50.561Z,100654.67
2023-05-10T10:50:05.274Z,100647.96
2023-05-10T10:55:20.631Z,100647.41
2023-05-10T11:00:38.087Z,100640.76
2023-05-10T11:05:55.250Z,100638.70
2023-05-10T11:11:12.076Z,100628.73
2023-05-10T11:16:24.867Z,100631.48
2023-05-10T11:21:28.454Z,100617.34
2023-05-10T11:26:33.900Z,100616.27
2023-05-10T11:31:43.510Z,100610.41
2023-05-10T11:36:53.312Z,100610.54
2023-05-10T11:41:58.212Z,100601.67
2023-05-10T11:47:03.203Z,100602.45
2023-05-10T11:52:21.457Z,100607.41
2023-05-10T11:57:28.556Z,100599.34
2023-05-10T12:02:37.616Z,100598.41
2023-05-10T12:07:47.459Z,100596.58
2023-05-10T12:12:53.711Z,100596.98
2023-05-10T12:17:58.010Z,100598.56
2023-05-10T12:23:04.712Z,100596.84
2023-05-10T12:28:11.674Z,100595.97
2023-05-10T12:33:17.650Z,100593.92
2023-05-10T12:38:31.788Z,100592.89
2023-05-10T12:43:36.390Z,100593.54
2023-05-10T12:48:43.892Z,100593.27
2023-05-10T12:53:49.692Z,100588.23
2023-05-10T12:58:53.106Z,100587.96
2023-05-10T13:03:56.701Z,100588.37
2023-05-10T13:09:01.320Z,100588.02
2023-05-10T13:14:05.929Z,100585.19
2023-05-10T13:19:08.944Z,100578.55
2023-05-10T13:24:15.054Z,100574.55
2023-05-10T13:29:19.199Z,100570.21
2023-05-10T13:34:22.134Z,100562.20
2023-05-10T13:39:25.420Z,100562.14
2023-05-10T13:44:28.366Z,100556.79
2023-05-10T13:49:32.637Z,100559.37
2023-05-10T13:54:35.557Z,100551.73
2023-05-10T13:59:38.860Z,100551.23
2023-05-10T14:04:42.092Z,100556.67
2023-05-10T14:09:44.895Z,100550.95
2023-05-10T14:14:47.752Z,100552.73
2023-05-10T14:19:50.682Z,100551.02
2023-05-10T14:24:56.179Z,100549.98
2023-05-10T14:30:00.474Z,100552.23
2023-05-10T14:35:12.207Z,100549.64
2023-05-10T14:40:19.871Z,100553.14
2023-05-10T14:45:25.073Z,100546.73
2023-05-10T14:50:36.435Z,100545.92
2023-05-10T14:55:42.328Z,100544.35
2023-05-10T15:00:45.217Z,100539.00
2023-05-10T15:05:48.809Z,100539.59
2023-05-10T15:10:52.440Z,100538.73
2023-05-10T15:15:56.008Z,100534.38
2023-05-10T15:20:58.957Z,100531.84
2023-05-10T15:26:04.238Z,100529.07
2023-05-10T15:31:07.234Z,100530.29
2023-05-10T15:36:10.093Z,100535.65
2023-05-10T15:41:13.430Z,100525.88
2023-05-10T15:46:16.274Z,100529.58
2023-05-10T15:51:21.039Z,100527.47
2023-05-10T15:56:25.154Z,100527.10
2023-05-10T16:01:29.316Z,100527.61
2023-05-10T16:06:35.771Z,100523.33
2023-05-10T16:11:38.799Z,100528.10
2023-05-10T16:16:41.967Z,100520.44
2023-05-10T16:21:44.891Z,100522.48
2023-05-10T16:26:48.656Z,100521.92
2023-05-10T16:31:52.575Z,100524.33
2023-05-10T16:36:55.410Z,100527.22
2023-05-10T16:41:59.199Z,100529.35
2023-05-10T16:47:04.223Z,100536.55
2023-05-10T16:52:07.139Z,100537.15
2023-05-10T16:57:09.966Z,100536.84
2023-05-10T17:02:14.039Z,100539.48
2023-05-10T17:07:19.095Z,100542.98
2023-05-10T17:12:28.644Z,100545.83
2023-05-10T17:17:33.546Z,100552.05
2023-05-10T17:22:36.446Z,100558.85
2023-05-10T17:27:39.677Z,100567.91
2023-05-10T17:32:43.878Z,100573.14
2023-05-10T17:43:16.247Z,100587.28
2023-05-10T17:48:19.270Z,100591.58
2023-05-10T17:53:22.120Z,100592.20
2023-05-10T17:58:25.615Z,100597.38
2023-05-10T18:03:29.809Z,100608.52
2023-05-10T18:08:35.778Z,100612.29
2023-05-10T18:13:42.554Z,100614.77
2023-05-10T18:18:45.699Z,100617.47
2023-05-10T18:23:49.117Z,100622.58
2023-05-10T18:28:52.043Z,100623.70
2023-05-10T18:33:54.994Z,100626.23
2023-05-10T18:38:58.357Z,100635.02
2023-05-10T18:44:01.770Z,100643.63
2023-05-10T18:49:05.633Z,100650.30
2023-05-10T18:54:08.577Z,100654.88
2023-05-10T18:59:12.881Z,100661.48
2023-05-10T19:04:15.952Z,100659.01
2023-05-10T19:09:20.259Z,100664.41
2023-05-10T19:14:25.166Z,100667.19
2023-05-10T19:19:29.000Z,100670.27
2023-05-10T19:24:36.199Z,100674.36
2023-05-10T19:29:40.386Z,100668.68
2023-05-10T19:34:44.801Z,100672.05
2023-05-10T19:39:47.773Z,100675.92
2023-05-10T19:44:52.082Z,100684.51
2023-05-10T19:49:55.212Z,100687.45
2023-05-10T19:54:58.318Z,100691.44
2023-05-10T20:00:02.546Z,100698.90
2023-05-10T20:05:05.770Z,100708.42
2023-05-10T20:10:10.175Z,100710.10
2023-05-10T20:15:14.219Z,100711.73
2023-05-10T20:20:17.585Z,100712.52
2023-05-10T20:25:22.223Z,100714.68
2023-05-10T20:30:25.184Z,100714.73
2023-05-10T20:35:27.983Z,100718.24
2023-05-10T20:40:31.901Z,100720.42
2023-05-10T20:45:37.485Z,100719.40
2023-05-10T20:50:43.292Z,100719.04
2023-05-10T20:55:46.077Z,100722.52
2023-05-10T21:00:49.282Z,100723.05
2023-05-10T21:05:52.047Z,100728.80
2023-05-10T21:10:54.885Z,100730.70
2023-05-10T21:15:57.755Z,100729.96
2023-05-10T21:21:00.746Z,100735.02
2023-05-10T21:26:04.351Z,100735.35
2023-05-10T21:31:08.548Z,100741.58
2023-05-10T21:36:11.779Z,100739.61
2023-05-10T21:41:14.610Z,100738.30
2023-05-10T21:46:17.632Z,100742.23
2023-05-10T21:51:21.922Z,100742.65
2023-05-10T21:56:24.721Z,100747.23
2023-05-10T22:01:27.722Z,100746.27
2023-05-10T22:06:31.103Z,100750.86
2023-05-10T22:11:34.452Z,100757.86
2023-05-10T22:16:37.342Z,100757.58
2023-05-10T22:21:40.225Z,100759.39
2023-05-10T22:26:43.031Z,100762.55
2023-05-10T22:31:45.988Z,100763.82
2023-05-10T22:36:50.639Z,100768.88
2023-05-10T22:41:53.463Z,100769.08
2023-05-10T22:46:56.481Z,100775.56
2023-05-10T22:51:59.412Z,100777.34
2023-05-10T22:57:02.294Z,100778.95
2023-05-10T23:02:05.282Z,100780.92
2023-05-10T23:07:08.221Z,100777.16
2023-05-10T23:12:11.137Z,100776.68
2023-05-10T23:17:13.969Z,100784.02
2023-05-10T23:22:17.133Z,100781.79
2023-05-10T23:27:19.943Z,100777.31
2023-05-10T23:32:23.452Z,100784.30
2023-05-10T23:37:26.275Z,100780.17
2023-05-10T23:42:29.083Z,100783.33
2023-05-10T23:47:31.942Z,100790.80
2023-05-10T23:52:34.797Z,100794.80
2023-05-10T23:57:37.979Z,100797.26
